createdAt,value
2023-03-04T00:01:33.020Z,6.80
2023-03-04T00:03:58.062Z,6.80
2023-03-04T00:06:22.494Z,6.80
2023-03-04T00:08:46.870Z,6.80
2023-03-04T00:11:11.361Z,6.50
2023-03-04T00:13:35.718Z,6.40
2023-03-04T00:16:04.009Z,6.20
2023-03-04T00:18:28.288Z,6.20
2023-03-04T00:20:52.869Z,6.30
2023-03-04T00:23:17.489Z,6.30
2023-03-04T00:25:43.571Z,6.30
2023-03-04T00:28:08.117Z,6.30
2023-03-04T00:30:32.786Z,6.40
2023-03-04T00:32:58.728Z,6.40
2023-03-04T00:35:23.337Z,6.50
2023-03-04T00:37:47.831Z,6.50
2023-03-04T00:40:15.109Z,6.60
2023-03-04T00:42:39.529Z,6.60
2023-03-04T00:45:04.069Z,6.60
2023-03-04T00:47:29.830Z,6.70
2023-03-04T00:49:55.633Z,6.70
2023-03-04T00:52:20.125Z,6.80
2023-03-04T00:54:44.647Z,6.80
2023-03-04T00:57:09.560Z,6.90
2023-03-04T00:59:34.296Z,6.80
2023-03-04T01:01:58.702Z,6.80
2023-03-04T01:04:23.172Z,6.80
2023-03-04T01:06:49.356Z,6.80
2023-03-04T01:09:14.413Z,6.80
2023-03-04T01:11:38.898Z,6.70
2023-03-04T01:14:03.322Z,6.70
2023-03-04T01:16:28.305Z,6.70
2023-03-04T01:18:52.892Z,6.70
2023-03-04T01:21:18.423Z,6.70
2023-03-04T01:23:44.730Z,6.50
2023-03-04T01:26:09.069Z,6.40
2023-03-04T01:28:35.896Z,6.40
2023-03-04T01:31:00.268Z,6.40
2023-03-04T01:33:24.927Z,6.50
2023-03-04T01:35:49.409Z,6.50
2023-03-04T01:38:14.427Z,6.50
2023-03-04T01:40:40.848Z,6.50
2023-03-04T01:43:05.470Z,6.50
2023-03-04T01:45:30.360Z,6.40
2023-03-04T01:47:54.757Z,6.50
2023-03-04T01:50:23.155Z,6.40
2023-03-04T01:52:47.624Z,6.40
2023-03-04T01:55:17.668Z,6.40
2023-03-04T01:57:43.524Z,6.50
2023-03-04T02:00:37.384Z,6.60
2023-03-04T02:03:07.245Z,6.60
2023-03-04T02:05:32.028Z,6.60
2023-03-04T02:07:57.330Z,6.60
2023-03-04T02:10:22.255Z,6.50
2023-03-04T02:12:48.418Z,6.50
2023-03-04T02:15:13.138Z,6.20
2023-03-04T02:17:37.538Z,6.10
2023-03-04T02:20:09.138Z,6.00
2023-03-04T02:22:40.177Z,6.20
2023-03-04T02:25:10.485Z,6.20
2023-03-04T02:27:36.534Z,6.20
2023-03-04T02:30:00.899Z,6.20
2023-03-04T02:32:27.412Z,6.30
2023-03-04T02:34:52.700Z,6.40
2023-03-04T02:37:19.720Z,6.50
2023-03-04T02:39:47.556Z,6.50
2023-03-04T02:42:12.765Z,6.50
2023-03-04T02:44:39.982Z,6.50
2023-03-04T02:47:06.615Z,6.50
2023-03-04T02:49:33.775Z,6.50
2023-03-04T02:52:02.699Z,6.50
2023-03-04T02:54:27.305Z,6.60
2023-03-04T02:56:54.700Z,6.60
2023-03-04T02:59:22.460Z,6.70
2023-03-04T03:01:50.202Z,6.80
2023-03-04T03:04:15.371Z,6.80
2023-03-04T03:06:42.259Z,6.80
2023-03-04T03:09:07.450Z,6.80
2023-03-04T03:11:32.034Z,6.90
2023-03-04T03:13:56.385Z,6.80
2023-03-04T03:16:23.155Z,6.90
2023-03-04T03:18:49.561Z,6.90
2023-03-04T03:21:13.980Z,6.80
2023-03-04T03:23:38.706Z,6.90
2023-03-04T03:26:04.858Z,6.90
2023-03-04T03:28:29.594Z,6.90
2023-03-04T03:30:53.914Z,7.00
2023-03-04T03:33:18.410Z,7.00
2023-03-04T03:35:44.775Z,7.00
2023-03-04T03:38:09.536Z,7.00
2023-03-04T03:40:34.217Z,7.00
2023-03-04T03:42:58.879Z,7.00
2023-03-04T03:45:23.562Z,7.00
2023-03-04T03:47:48.312Z,7.00
2023-03-04T03:50:13.190Z,7.00
2023-03-04T03:52:38.954Z,7.00
2023-03-04T03:55:03.506Z,7.00
2023-03-04T03:57:27.984Z,7.00
2023-03-04T03:59:52.335Z,7.00
2023-03-04T04:02:16.856Z,6.90
2023-03-04T04:04:42.368Z,6.80
2023-03-04T04:07:06.812Z,6.60
2023-03-04T04:09:32.518Z,6.70
2023-03-04T04:11:57.601Z,6.70
2023-03-04T04:14:21.932Z,6.80
2023-03-04T04:16:46.389Z,6.80
2023-03-04T04:19:16.691Z,6.80
2023-03-04T04:21:41.069Z,6.80
2023-03-04T04:24:05.929Z,6.80
2023-03-04T04:26:31.805Z,6.80
2023-03-04T04:28:56.206Z,6.80
2023-03-04T04:31:20.602Z,6.80
2023-03-04T04:33:47.447Z,6.80
2023-03-04T04:36:18.193Z,6.70
2023-03-04T04:38:42.581Z,6.70
2023-03-04T04:41:07.750Z,6.70
2023-03-04T04:43:33.607Z,6.70
2023-03-04T04:46:00.329Z,6.70
2023-03-04T04:48:24.678Z,6.70
2023-03-04T04:50:54.617Z,6.70
2023-03-04T04:53:18.996Z,6.60
2023-03-04T04:55:43.345Z,6.60
2023-03-04T04:58:08.262Z,6.50
2023-03-04T05:00:33.960Z,6.50
2023-03-04T05:02:58.454Z,6.50
2023-03-04T05:05:22.760Z,6.50
2023-03-04T05:07:48.626Z,6.50
2023-03-04T05:10:13.304Z,6.50
2023-03-04T05:12:37.707Z,6.40
2023-03-04T05:15:02.034Z,6.30
2023-03-04T05:17:28.960Z,6.30
2023-03-04T05:19:53.622Z,6.20
2023-03-04T05:22:18.039Z,6.00
2023-03-04T05:24:42.499Z,6.00
2023-03-04T05:27:07.243Z,5.90
2023-03-04T05:29:31.653Z,5.90
2023-03-04T05:31:56.121Z,5.80
2023-03-04T05:34:22.175Z,5.70
2023-03-04T05:36:46.655Z,5.70
2023-03-04T05:39:12.484Z,5.70
2023-03-04T05:41:36.978Z,5.60
2023-03-04T05:44:01.399Z,5.60
2023-03-04T05:46:26.375Z,5.50
2023-03-04T05:48:51.153Z,5.30
2023-03-04T05:51:17.006Z,5.30
2023-03-04T05:53:42.916Z,5.20
2023-03-04T05:56:11.460Z,5.30
2023-03-04T05:58:35.838Z,5.10
2023-03-04T06:01:01.877Z,5.10
2023-03-04T06:03:26.216Z,5.10
2023-03-04T06:05:50.963Z,5.20
2023-03-04T06:08:16.913Z,5.20
2023-03-04T06:10:42.715Z,5.20
2023-03-04T06:13:07.308Z,5.30
2023-03-04T06:15:32.281Z,5.40
2023-03-04T06:17:56.561Z,5.40
2023-03-04T06:20:21.143Z,5.40
2023-03-04T06:22:45.528Z,5.50
2023-03-04T06:25:12.234Z,5.60
2023-03-04T06:27:36.666Z,5.60
2023-03-04T06:30:03.177Z,5.60
2023-03-04T06:32:28.045Z,5.60
2023-03-04T06:34:52.516Z,5.70
2023-03-04T06:37:16.933Z,5.60
2023-03-04T06:39:41.385Z,5.60
2023-03-04T06:42:07.232Z,5.60
2023-03-04T06:44:32.004Z,5.70
2023-03-04T06:46:56.512Z,5.80
2023-03-04T06:49:20.867Z,5.90
2023-03-04T06:51:46.361Z,6.00
2023-03-04T06:54:11.174Z,6.10
2023-03-04T06:56:35.973Z,6.20
2023-03-04T06:59:01.855Z,6.40
2023-03-04T07:01:29.682Z,6.40
2023-03-04T07:03:54.897Z,6.60
2023-03-04T07:06:22.193Z,6.70
2023-03-04T07:08:46.982Z,6.80
2023-03-04T07:11:12.093Z,6.80
2023-03-04T07:13:38.450Z,6.90
2023-03-04T07:16:04.453Z,7.10
2023-03-04T07:18:29.068Z,7.30
2023-03-04T07:20:54.040Z,7.70
2023-03-04T07:23:18.297Z,8.20
2023-03-04T07:25:43.006Z,8.50
2023-03-04T07:28:07.300Z,8.50
2023-03-04T07:30:31.716Z,8.70
2023-03-04T07:32:58.995Z,8.80
2023-03-04T07:35:23.420Z,9.00
2023-03-04T07:37:47.971Z,9.10
2023-03-04T07:40:13.575Z,9.20
2023-03-04T07:42:38.435Z,9.20
2023-03-04T07:45:09.931Z,9.30
2023-03-04T07:47:34.381Z,9.40
2023-03-04T07:50:00.174Z,9.50
2023-03-04T07:52:24.683Z,9.60
2023-03-04T07:54:50.248Z,9.70
2023-03-04T07:57:15.443Z,9.70
2023-03-04T07:59:39.934Z,9.50
2023-03-04T08:02:04.461Z,9.50
2023-03-04T08:04:28.970Z,9.70
2023-03-04T08:06:54.828Z,10.10
2023-03-04T08:09:19.574Z,10.40
2023-03-04T08:11:44.656Z,10.70
2023-03-04T08:14:09.355Z,10.90
2023-03-04T08:16:34.284Z,10.90
2023-03-04T08:19:02.022Z,11.10
2023-03-04T08:21:28.193Z,11.40
2023-03-04T08:23:54.412Z,11.50
2023-03-04T08:26:22.159Z,11.80
2023-03-04T08:28:47.153Z,11.80
2023-03-04T08:31:11.747Z,11.90
2023-03-04T08:33:36.388Z,12.00
2023-03-04T08:36:01.667Z,12.00
2023-03-04T08:38:27.962Z,12.00
2023-03-04T08:40:58.153Z,12.10
2023-03-04T08:43:22.668Z,12.10
2023-03-04T08:45:47.025Z,12.30
2023-03-04T08:48:12.363Z,12.50
2023-03-04T08:50:37.544Z,12.40
2023-03-04T08:53:01.970Z,12.30
2023-03-04T08:55:26.534Z,12.10
2023-03-04T08:57:52.359Z,11.80
2023-03-04T09:00:17.810Z,11.50
2023-03-04T09:02:42.211Z,11.20
2023-03-04T09:05:08.062Z,11.20
2023-03-04T09:07:32.562Z,10.90
2023-03-04T09:09:56.910Z,10.50
2023-03-04T09:12:21.475Z,10.40
2023-03-04T09:15:10.677Z,10.50
2023-03-04T09:17:38.334Z,10.20
2023-03-04T09:20:19.193Z,10.30
2023-03-04T09:22:52.483Z,10.20
2023-03-04T09:25:37.528Z,10.10
2023-03-04T09:28:09.455Z,10.40
2023-03-04T09:30:38.808Z,10.50
2023-03-04T09:33:22.958Z,10.70
2023-03-04T09:36:31.629Z,10.70
2023-03-04T09:39:09.869Z,10.90
2023-03-04T09:50:08.600Z,10.90
2023-03-04T09:57:42.207Z,10.70
2023-03-04T10:01:24.877Z,10.80
2023-03-04T10:05:34.868Z,10.70
2023-03-04T10:09:16.537Z,10.40
2023-03-04T10:12:47.552Z,10.20
2023-03-04T10:23:59.863Z,10.40
2023-03-04T10:26:38.580Z,10.50
2023-03-04T10:29:49.040Z,10.20
2023-03-04T10:32:47.440Z,10.30
2023-03-04T10:35:27.791Z,10.20
2023-03-04T10:42:32.611Z,10.60
2023-03-04T10:45:50.735Z,10.90
2023-03-04T10:49:13.460Z,11.30
2023-03-04T10:52:46.353Z,11.60
2023-03-04T11:05:50.684Z,11.90
2023-03-04T11:22:17.731Z,11.90
2023-03-04T11:25:32.640Z,12.00
2023-03-04T11:29:59.672Z,11.90
2023-03-04T11:37:31.525Z,11.80
2023-03-04T11:41:07.220Z,12.00
2023-03-04T11:44:00.814Z,12.00
2023-03-04T11:47:45.348Z,12.10
2023-03-04T11:51:35.468Z,12.30
2023-03-04T11:55:02.832Z,12.40
2023-03-04T12:01:58.683Z,12.50
2023-03-04T12:09:59.655Z,12.40
2023-03-04T12:14:10.830Z,12.50
2023-03-04T12:27:36.841Z,12.60
2023-03-04T12:39:28.938Z,12.50
2023-03-04T12:43:38.602Z,12.70
2023-03-04T12:47:12.555Z,12.60
2023-03-04T12:50:36.047Z,12.70
2023-03-04T12:53:21.245Z,12.90
2023-03-04T12:55:51.976Z,12.80
2023-03-04T12:58:53.929Z,12.70
2023-03-04T13:02:06.285Z,12.80
2023-03-04T13:06:29.007Z,12.90
2023-03-04T13:10:11.936Z,12.90
2023-03-04T13:13:32.048Z,13.10
2023-03-04T13:17:13.253Z,13.10
2023-03-04T13:19:55.785Z,13.10
2023-03-04T13:27:02.627Z,12.90
2023-03-04T13:34:43.741Z,12.90
2023-03-04T13:43:02.629Z,13.10
2023-03-04T13:54:44.073Z,13.00
2023-03-04T14:02:40.860Z,13.00
2023-03-04T14:09:07.447Z,12.80
2023-03-04T14:16:54.951Z,12.50
2023-03-04T14:21:04.110Z,12.30
2023-03-04T14:24:54.675Z,12.20
2023-03-04T14:39:16.939Z,12.00
2023-03-04T14:42:45.395Z,11.80
2023-03-04T14:53:50.833Z,11.60
2023-03-04T15:01:05.140Z,11.50
2023-03-04T15:04:20.116Z,11.40
2023-03-04T15:08:18.158Z,11.30
2023-03-04T15:12:26.440Z,11.40
2023-03-04T15:15:56.396Z,11.30
2023-03-04T15:19:14.763Z,11.30
2023-03-04T15:22:58.636Z,11.10
2023-03-04T15:26:27.288Z,11.10
2023-03-04T15:30:24.853Z,11.10
2023-03-04T15:38:48.908Z,10.90
2023-03-04T16:04:18.827Z,10.50
2023-03-04T16:12:59.851Z,10.40
2023-03-04T16:28:54.292Z,10.20
2023-03-04T16:31:21.139Z,10.20
2023-03-04T16:33:45.897Z,10.20
2023-03-04T16:36:15.892Z,10.20
2023-03-04T16:38:40.244Z,10.20
2023-03-04T16:41:04.786Z,10.20
2023-03-04T16:43:29.993Z,10.20
2023-03-04T16:45:56.204Z,10.10
2023-03-04T16:48:21.326Z,10.10
2023-03-04T16:50:46.437Z,10.00
2023-03-04T16:58:15.766Z,9.90
2023-03-04T17:00:42.820Z,10.00
2023-03-04T17:03:11.835Z,10.00
2023-03-04T17:05:36.369Z,10.00
2023-03-04T17:08:00.919Z,9.90
2023-03-04T17:10:26.148Z,9.90
2023-03-04T17:12:51.047Z,9.90
2023-03-04T17:15:16.219Z,9.90
2023-03-04T17:17:41.402Z,9.80
2023-03-04T17:20:08.900Z,9.80
2023-03-04T17:22:34.416Z,9.90
2023-03-04T17:24:59.141Z,10.00
2023-03-04T17:27:23.585Z,10.10
2023-03-04T17:29:49.098Z,10.10
2023-03-04T17:32:13.482Z,10.00
2023-03-04T17:34:37.980Z,9.90
2023-03-04T17:37:03.855Z,9.90
2023-03-04T17:39:28.646Z,9.80
2023-03-04T17:41:53.713Z,9.90
2023-03-04T17:44:18.685Z,9.90
2023-03-04T17:46:43.284Z,9.80
2023-03-04T17:49:08.865Z,9.70
2023-03-04T17:51:35.258Z,9.70
2023-03-04T17:54:01.566Z,9.70
2023-03-04T17:56:30.137Z,9.70
2023-03-04T17:58:54.722Z,9.70
2023-03-04T18:01:21.423Z,9.60
2023-03-04T18:03:46.735Z,9.60
2023-03-04T18:06:11.452Z,9.60
2023-03-04T18:08:36.064Z,9.60
2023-03-04T18:11:02.365Z,9.60
2023-03-04T18:13:27.510Z,9.60
2023-03-04T18:15:52.026Z,9.60
2023-03-04T18:18:19.283Z,9.50
2023-03-04T18:20:43.952Z,9.40
2023-03-04T18:23:09.168Z,9.50
2023-03-04T18:25:33.640Z,9.40
2023-03-04T18:27:59.966Z,9.30
2023-03-04T18:30:27.937Z,9.40
2023-03-04T18:32:53.513Z,9.30
2023-03-04T18:35:19.677Z,9.30
2023-03-04T18:37:45.384Z,9.20
2023-03-04T18:40:11.187Z,9.30
2023-03-04T18:42:37.579Z,9.30
2023-03-04T18:45:04.178Z,9.30
2023-03-04T18:47:28.876Z,9.20
2023-03-04T18:49:54.073Z,9.20
2023-03-04T18:52:20.239Z,9.30
2023-03-04T18:54:44.999Z,9.30
2023-03-04T18:57:12.279Z,9.10
2023-03-04T18:59:41.589Z,9.10
2023-03-04T19:02:13.324Z,9.00
2023-03-04T19:04:38.549Z,8.90
2023-03-04T19:07:03.347Z,8.90
2023-03-04T19:09:27.959Z,9.00
2023-03-04T19:11:52.356Z,9.00
2023-03-04T19:14:16.946Z,9.00
2023-03-04T19:16:41.684Z,8.90
2023-03-04T19:19:08.736Z,9.00
2023-03-04T19:21:33.271Z,9.00
2023-03-04T19:23:57.882Z,9.00
2023-03-04T19:26:22.299Z,9.00
2023-03-04T19:28:46.872Z,8.90
2023-03-04T19:31:12.336Z,8.90
2023-03-04T19:33:37.602Z,8.90
2023-03-04T19:36:05.119Z,9.00
2023-03-04T19:38:29.663Z,8.80
2023-03-04T19:40:54.500Z,8.80
2023-03-04T19:43:19.355Z,8.80
2023-03-04T19:45:43.910Z,8.80
2023-03-04T19:48:10.462Z,8.60
2023-03-04T19:50:35.161Z,8.60
2023-03-04T19:53:02.759Z,8.50
2023-03-04T19:55:27.256Z,8.40
2023-03-04T19:57:55.533Z,8.30
2023-03-04T20:00:23.344Z,8.20
2023-03-04T20:02:49.231Z,8.20
2023-03-04T20:05:13.656Z,8.20
2023-03-04T20:07:38.176Z,8.20
2023-03-04T20:10:04.624Z,8.20
2023-03-04T20:12:31.366Z,8.30
2023-03-04T20:14:55.938Z,8.20
2023-03-04T20:17:20.681Z,8.20
2023-03-04T20:19:45.300Z,8.20
2023-03-04T20:22:10.661Z,8.10
2023-03-04T20:24:35.137Z,8.10
2023-03-04T20:27:01.043Z,8.20
2023-03-04T20:29:30.113Z,8.10
2023-03-04T20:31:55.111Z,8.00
2023-03-04T20:34:19.517Z,8.00
2023-03-04T20:36:44.051Z,7.90
2023-03-04T20:39:26.959Z,7.90
2023-03-04T20:41:52.828Z,7.80
2023-03-04T20:44:18.838Z,7.90
2023-03-04T20:46:46.189Z,7.90
2023-03-04T20:49:12.606Z,7.90
2023-03-04T20:51:38.091Z,7.80
2023-03-04T20:54:03.915Z,7.80
2023-03-04T20:56:29.592Z,7.80
2023-03-04T20:58:55.951Z,7.80
2023-03-04T21:01:22.769Z,7.70
2023-03-04T21:03:47.853Z,7.80
2023-03-04T21:06:14.436Z,7.80
2023-03-04T21:08:38.834Z,7.60
2023-03-04T21:11:03.630Z,7.50
2023-03-04T21:13:30.835Z,7.40
2023-03-04T21:15:55.373Z,7.20
2023-03-04T21:18:21.468Z,7.20
2023-03-04T21:20:48.514Z,7.20
2023-03-04T21:23:13.190Z,7.30
2023-03-04T21:25:37.672Z,7.30
2023-03-04T21:28:02.430Z,7.30
2023-03-04T21:30:26.977Z,7.30
2023-03-04T21:32:52.665Z,7.30
2023-03-04T21:35:19.543Z,7.30
2023-03-04T21:37:44.106Z,7.40
2023-03-04T21:40:09.669Z,7.30
2023-03-04T21:42:34.160Z,7.30
2023-03-04T21:44:58.779Z,7.30
2023-03-04T21:47:23.827Z,7.30
2023-03-04T21:49:48.621Z,7.40
2023-03-04T21:52:14.842Z,7.40
2023-03-04T21:54:39.356Z,7.40
2023-03-04T21:57:04.030Z,7.30
2023-03-04T21:59:28.609Z,7.20
2023-03-04T22:01:55.232Z,7.20
2023-03-04T22:04:20.368Z,7.20
2023-03-04T22:06:44.792Z,7.10
2023-03-04T22:09:12.246Z,7.00
2023-03-04T22:11:36.857Z,6.80
2023-03-04T22:14:02.887Z,6.80
2023-03-04T22:16:27.807Z,6.80
2023-03-04T22:18:52.360Z,6.80
2023-03-04T22:21:19.288Z,6.70
2023-03-04T22:23:43.976Z,6.70
2023-03-04T22:26:13.098Z,6.70
2023-03-04T22:28:37.758Z,6.70
2023-03-04T22:31:03.007Z,6.70
2023-03-04T22:33:27.590Z,6.70
2023-03-04T22:35:53.574Z,6.70
2023-03-04T22:38:18.385Z,6.80
2023-03-04T22:40:42.829Z,6.70
2023-03-04T22:43:09.468Z,6.60
2023-03-04T22:45:33.991Z,6.60
2023-03-04T22:47:58.655Z,6.60
2023-03-04T22:50:23.718Z,6.60
2023-03-04T22:52:48.870Z,6.50
2023-03-04T22:55:14.450Z,6.50
2023-03-04T22:57:38.893Z,6.30
2023-03-04T23:00:07.784Z,6.20
2023-03-04T23:02:32.210Z,6.20
2023-03-04T23:04:56.678Z,6.10
2023-03-04T23:07:22.082Z,6.20
2023-03-04T23:09:46.601Z,6.20
2023-03-04T23:12:11.373Z,6.20
2023-03-04T23:14:35.862Z,6.30
2023-03-04T23:17:01.952Z,6.20
2023-03-04T23:19:28.907Z,6.20
2023-03-04T23:21:53.474Z,6.10
2023-03-04T23:24:19.646Z,6.10
2023-03-04T23:26:45.371Z,6.00
2023-03-04T23:29:12.607Z,6.00
2023-03-04T23:31:37.507Z,5.90
2023-03-04T23:34:05.034Z,5.90
2023-03-04T23:36:33.051Z,5.90
2023-03-04T23:38:57.588Z,6.00
2023-03-04T23:41:24.269Z,6.00
2023-03-04T23:43:51.339Z,6.00
2023-03-04T23:46:16.221Z,6.00
2023-03-04T23:48:46.316Z,6.10
2023-03-04T23:51:12.445Z,6.00
2023-03-04T23:53:39.100Z,6.00
2023-03-04T23:56:03.572Z,5.90
2023-03-04T23:58:28.298Z,5.80
